Terminal Aerodrome Forecast
Issued by NWS

Home | Current Version | Previous Version | Text Only | Print | Product List | Glossary Off
Versions: 1 2 3 4 5 6 7 8 9 10 11 12 13 14 15 16

000
FTUS45 KGGW 151124
TAFSDY
TAF
KSDY 151124Z 1512/1612 VRB05KT P6SM BKN150
      TEMPO 1512/1514 1SM BR
     FM152200 34006KT P6SM SCT150=

USA.gov is the U.S. government's official web portal to all federal, state and local government web resources and services.